Time;durP1;ratioP1;P1;durP2;ratioP2;P2;SDS_P1;SDS_P2;PMS_P1;PMS_P2;Temp;Humidity;BMP_temperature;BMP_pressure;BME280_temperature;BME280_humidity;BME280_pressure;Samples;Min_cycle;Max_cycle;Signal;HPM_P1;HPM_P2
2024/01/02 00:01:18;;;;;;;;;;;16.80;69.50;;;;;;10256067;28;93632;-58
2024/01/02 00:06:19;;;;;;;;;;;16.80;69.50;;;;;;10255259;28;93768;-58
2024/01/02 00:11:21;;;;;;;;;;;16.70;69.10;;;;;;10254471;28;94151;-58
2024/01/02 00:16:23;;;;;;;;;;;16.70;68.70;;;;;;10254730;28;93565;-58
2024/01/02 00:21:25;;;;;;;;;;;16.70;68.30;;;;;;10241691;28;96908;-58
2024/01/02 00:26:27;;;;;;;;;;;16.70;68.00;;;;;;10234804;28;93963;-58
2024/01/02 00:31:28;;;;;;;;;;;16.70;67.60;;;;;;10252893;28;94777;-58
2024/01/02 00:36:30;;;;;;;;;;;16.70;67.30;;;;;;10235586;28;92773;-58
2024/01/02 00:41:32;;;;;;;;;;;16.70;67.10;;;;;;10247410;28;95079;-58
2024/01/02 00:46:34;;;;;;;;;;;16.70;66.80;;;;;;10236086;28;93856;-58
2024/01/02 00:51:36;;;;;;;;;;;16.70;67.30;;;;;;10242601;28;93543;-58
2024/01/02 00:56:38;;;;;;;;;;;16.60;67.40;;;;;;10237598;28;92900;-58
2024/01/02 01:01:39;;;;;;;;;;;16.60;67.60;;;;;;10243658;28;93038;-58
2024/01/02 01:06:41;;;;;;;;;;;16.60;67.30;;;;;;10245635;28;95187;-59
2024/01/02 01:11:43;;;;;;;;;;;16.60;66.90;;;;;;10238510;28;96314;-58
2024/01/02 01:16:45;;;;;;;;;;;16.60;66.70;;;;;;10238267;28;93797;-59
2024/01/02 01:21:47;;;;;;;;;;;16.60;66.40;;;;;;10237812;28;94758;-59
2024/01/02 01:26:52;;;;;;;;;;;16.60;66.10;;;;;;10247236;28;94140;-58
2024/01/02 01:31:54;;;;;;;;;;;16.60;66.90;;;;;;10248363;28;94330;-59
2024/01/02 01:36:56;;;;;;;;;;;16.60;65.50;;;;;;10245595;28;94394;-59
2024/01/02 01:41:58;;;;;;;;;;;16.60;65.40;;;;;;10243211;28;93110;-59
2024/01/02 01:46:59;;;;;;;;;;;16.60;65.80;;;;;;10241550;28;95078;-59
2024/01/02 01:52:01;;;;;;;;;;;16.60;66.30;;;;;;10234056;28;93639;-59
2024/01/02 01:57:04;;;;;;;;;;;16.50;66.20;;;;;;10245370;28;93520;-58
2024/01/02 02:07:20;;;;;;;;;;;16.60;65.60;;;;;;10170145;28;95172;-47
2024/01/02 02:12:25;;;;;;;;;;;16.60;65.20;;;;;;10190456;28;94565;-48
2024/01/02 02:17:30;;;;;;;;;;;16.60;65.00;;;;;;10179857;28;93568;-46
2024/01/02 02:22:36;;;;;;;;;;;16.60;64.70;;;;;;10189628;28;94547;-47
2024/01/02 02:27:37;;;;;;;;;;;16.60;64.50;;;;;;10212177;28;92869;-45
2024/01/02 02:32:39;;;;;;;;;;;16.60;64.20;;;;;;10185105;28;93354;-48
2024/01/02 02:37:41;;;;;;;;;;;16.60;64.10;;;;;;10184927;28;92823;-43
2024/01/02 02:42:43;;;;;;;;;;;16.60;64.60;;;;;;10215306;28;94518;-47
2024/01/02 02:47:44;;;;;;;;;;;16.50;65.10;;;;;;10186984;28;93983;-43
2024/01/02 02:52:46;;;;;;;;;;;16.50;65.00;;;;;;10185890;28;96105;-45
2024/01/02 02:57:48;;;;;;;;;;;16.50;64.80;;;;;;10202580;28;92643;-48
2024/01/02 03:02:50;;;;;;;;;;;16.50;64.40;;;;;;10213736;28;94524;-45
2024/01/02 03:07:52;;;;;;;;;;;16.50;64.10;;;;;;10189992;28;95146;-44
2024/01/02 03:12:54;;;;;;;;;;;16.50;63.90;;;;;;10185026;28;93475;-44
2024/01/02 03:17:55;;;;;;;;;;;16.50;63.70;;;;;;10193889;28;94606;-44
2024/01/02 03:22:58;;;;;;;;;;;16.50;63.50;;;;;;10209353;28;94496;-47
2024/01/02 03:27:59;;;;;;;;;;;16.40;63.30;;;;;;10190072;28;92635;-44
2024/01/02 03:33:01;;;;;;;;;;;16.50;63.40;;;;;;10177291;28;93452;-42
2024/01/02 03:38:03;;;;;;;;;;;16.40;63.90;;;;;;10183855;28;94516;-43
2024/01/02 03:43:05;;;;;;;;;;;16.40;64.40;;;;;;10184633;28;95921;-45
2024/01/02 03:48:07;;;;;;;;;;;16.40;64.30;;;;;;10176126;28;94189;-44
2024/01/02 03:53:10;;;;;;;;;;;16.40;63.90;;;;;;10192941;28;94175;-45
2024/01/02 03:58:12;;;;;;;;;;;16.40;63.60;;;;;;10194718;28;94451;-43
2024/01/02 04:03:14;;;;;;;;;;;16.40;63.40;;;;;;10196955;28;93471;-51
2024/01/02 04:08:16;;;;;;;;;;;16.40;63.10;;;;;;10203844;28;94655;-45
2024/01/02 04:13:17;;;;;;;;;;;16.40;62.90;;;;;;10188073;28;93511;-46
2024/01/02 04:18:19;;;;;;;;;;;16.40;63.00;;;;;;10208553;28;93036;-46
2024/01/02 04:23:21;;;;;;;;;;;16.40;62.60;;;;;;10200693;28;94302;-45
2024/01/02 04:28:23;;;;;;;;;;;16.40;62.70;;;;;;10207198;28;93441;-50
2024/01/02 04:33:25;;;;;;;;;;;16.30;63.20;;;;;;10201270;28;96839;-43
2024/01/02 04:38:27;;;;;;;;;;;16.30;63.70;;;;;;10200264;28;93601;-44
2024/01/02 04:43:29;;;;;;;;;;;16.30;64.10;;;;;;10189086;28;93530;-46
2024/01/02 04:48:30;;;;;;;;;;;16.30;64.30;;;;;;10214781;28;93396;-46
2024/01/02 04:53:32;;;;;;;;;;;16.20;64.50;;;;;;10185251;28;94435;-43
2024/01/02 04:58:34;;;;;;;;;;;16.20;64.70;;;;;;10189734;28;94466;-45
2024/01/02 05:03:36;;;;;;;;;;;16.20;64.90;;;;;;10195658;28;93535;-46
2024/01/02 05:08:38;;;;;;;;;;;16.10;64.90;;;;;;10189475;28;92758;-46
2024/01/02 05:13:39;;;;;;;;;;;16.20;65.20;;;;;;10180696;28;94733;-45
2024/01/02 05:18:41;;;;;;;;;;;16.10;65.30;;;;;;10174740;28;93408;-46
2024/01/02 05:23:43;;;;;;;;;;;16.10;65.40;;;;;;10169220;28;97091;-44
2024/01/02 05:28:45;;;;;;;;;;;16.20;65.60;;;;;;10177789;28;94258;-45
2024/01/02 05:33:47;;;;;;;;;;;16.10;65.70;;;;;;10178622;28;93432;-45
2024/01/02 05:38:49;;;;;;;;;;;16.20;65.80;;;;;;10181673;28;94608;-49
2024/01/02 05:43:51;;;;;;;;;;;16.20;65.80;;;;;;10176564;28;94077;-47
2024/01/02 05:48:53;;;;;;;;;;;16.10;65.90;;;;;;10176505;28;94750;-43
2024/01/02 05:53:54;;;;;;;;;;;16.30;66.10;;;;;;10173963;28;94110;-46
2024/01/02 05:58:56;;;;;;;;;;;16.50;66.00;;;;;;10172587;28;92740;-44
2024/01/02 06:03:58;;;;;;;;;;;16.60;65.60;;;;;;10176419;28;95904;-70
2024/01/02 06:09:00;;;;;;;;;;;16.70;65.20;;;;;;10187152;28;94681;-47
2024/01/02 06:14:01;;;;;;;;;;;16.80;65.10;;;;;;10200503;28;97225;-45
2024/01/02 06:19:04;;;;;;;;;;;16.90;65.10;;;;;;10200136;28;96768;-46
2024/01/02 06:24:06;;;;;;;;;;;16.80;65.00;;;;;;10180543;28;94683;-44
2024/01/02 06:29:08;;;;;;;;;;;16.80;65.00;;;;;;10202898;28;93470;-43
2024/01/02 06:34:09;;;;;;;;;;;16.80;65.10;;;;;;10207132;28;93789;-45
2024/01/02 06:39:12;;;;;;;;;;;16.80;65.20;;;;;;10188265;28;94348;-45
2024/01/02 06:44:14;;;;;;;;;;;16.70;65.20;;;;;;10183373;28;93518;-46
2024/01/02 06:49:16;;;;;;;;;;;16.70;65.40;;;;;;10202179;28;93091;-45
2024/01/02 06:54:17;;;;;;;;;;;16.70;65.60;;;;;;10196526;28;94638;-48
2024/01/02 06:59:19;;;;;;;;;;;16.70;65.60;;;;;;10209429;28;94029;-47
2024/01/02 07:04:21;;;;;;;;;;;16.60;65.70;;;;;;10209213;28;96409;-43
2024/01/02 07:09:23;;;;;;;;;;;16.60;65.90;;;;;;10199990;28;94547;-48
2024/01/02 07:14:24;;;;;;;;;;;16.60;66.10;;;;;;10188038;28;94058;-46
2024/01/02 07:19:26;;;;;;;;;;;16.50;66.30;;;;;;10202653;28;94385;-47
2024/01/02 07:24:31;;;;;;;;;;;16.50;66.50;;;;;;10198895;28;93883;-48
2024/01/02 07:29:32;;;;;;;;;;;16.50;66.70;;;;;;10220737;28;93406;-48
2024/01/02 07:34:34;;;;;;;;;;;16.50;66.80;;;;;;10211102;28;93374;-44
2024/01/02 07:39:36;;;;;;;;;;;16.50;67.20;;;;;;10189916;28;93009;-43
2024/01/02 07:44:38;;;;;;;;;;;16.40;67.20;;;;;;10205227;28;94182;-44
2024/01/02 07:49:40;;;;;;;;;;;16.40;67.20;;;;;;10213098;28;93548;-45
2024/01/02 07:54:42;;;;;;;;;;;16.40;67.30;;;;;;10206778;28;96448;-44
2024/01/02 07:59:44;;;;;;;;;;;16.40;67.50;;;;;;10214406;28;94262;-43
2024/01/02 08:04:45;;;;;;;;;;;16.40;67.70;;;;;;10206713;28;94322;-44
2024/01/02 08:09:47;;;;;;;;;;;16.40;67.80;;;;;;10200965;28;93490;-44
2024/01/02 08:14:49;;;;;;;;;;;16.40;67.90;;;;;;10206583;28;93486;-42
2024/01/02 08:19:51;;;;;;;;;;;16.40;68.10;;;;;;10195547;28;94441;-46
2024/01/02 08:24:53;;;;;;;;;;;16.40;68.20;;;;;;10214511;28;94745;-45
2024/01/02 08:29:54;;;;;;;;;;;16.30;68.20;;;;;;10211343;28;93758;-47
2024/01/02 08:34:57;;;;;;;;;;;16.40;69.20;;;;;;10213222;28;92553;-46
2024/01/02 08:39:59;;;;;;;;;;;16.30;69.50;;;;;;10227145;28;94476;-44
2024/01/02 08:45:01;;;;;;;;;;;16.40;69.70;;;;;;10203342;28;96886;-49
2024/01/02 08:50:02;;;;;;;;;;;16.40;70.00;;;;;;10198423;28;94466;-49
2024/01/02 08:55:05;;;;;;;;;;;16.40;70.30;;;;;;10203439;28;94405;-48
2024/01/02 09:00:07;;;;;;;;;;;16.40;70.30;;;;;;10181598;28;94482;-42
2024/01/02 09:05:09;;;;;;;;;;;16.40;70.30;;;;;;10193625;28;93931;-43
2024/01/02 09:10:11;;;;;;;;;;;16.40;70.50;;;;;;10208325;28;94202;-43
2024/01/02 09:15:13;;;;;;;;;;;16.50;71.70;;;;;;10190462;28;96571;-48
2024/01/02 09:20:15;;;;;;;;;;;16.50;71.90;;;;;;10199240;28;92929;-44
2024/01/02 09:25:21;;;;;;;;;;;16.60;71.50;;;;;;10210971;28;93477;-43
2024/01/02 09:30:23;;;;;;;;;;;16.70;71.30;;;;;;10212060;28;93732;-50
2024/01/02 09:35:25;;;;;;;;;;;16.90;71.20;;;;;;10196641;28;97011;-43
2024/01/02 09:40:47;;;;;;;;;;;17.10;70.90;;;;;;10196095;28;94750;-43
2024/01/02 09:46:03;;;;;;;;;;;17.30;70.60;;;;;;10195251;28;93452;-43
2024/01/02 09:51:17;;;;;;;;;;;17.40;70.30;;;;;;10195040;28;94672;-44
2024/01/02 09:56:43;;;;;;;;;;;17.50;70.10;;;;;;10198465;28;92831;-46
2024/01/02 10:01:47;;;;;;;;;;;17.50;70.40;;;;;;10183675;28;94731;-43
2024/01/02 10:07:08;;;;;;;;;;;17.50;70.40;;;;;;10198718;28;94604;-46
2024/01/02 10:12:22;;;;;;;;;;;17.50;70.30;;;;;;10203291;28;94021;-45
2024/01/02 10:17:47;;;;;;;;;;;17.50;70.20;;;;;;10185215;28;94582;-47
2024/01/02 11:35:32;;;;;;;;;;;17.40;70.30;;;;;;10165456;28;93884;-45
2024/01/02 11:40:53;;;;;;;;;;;17.50;70.80;;;;;;10179006;28;94082;-46
2024/01/02 11:45:56;;;;;;;;;;;17.50;70.70;;;;;;10193972;28;94078;-45
2024/01/02 11:51:02;;;;;;;;;;;17.60;70.70;;;;;;10187861;28;94649;-44
2024/01/02 11:56:07;;;;;;;;;;;17.60;70.80;;;;;;10180225;28;93754;-49
2024/01/02 12:01:17;;;;;;;;;;;17.60;71.20;;;;;;10177343;28;94180;-44
2024/01/02 12:06:23;;;;;;;;;;;17.60;71.00;;;;;;10178173;28;93958;-44
2024/01/02 12:11:26;;;;;;;;;;;17.60;70.70;;;;;;10188599;28;94075;-45
2024/01/02 12:16:30;;;;;;;;;;;17.60;70.50;;;;;;10185281;28;93476;-43
2024/01/02 12:21:34;;;;;;;;;;;17.60;70.50;;;;;;10197535;28;95981;-43
2024/01/02 12:26:36;;;;;;;;;;;17.50;70.30;;;;;;10191032;28;93456;-43
2024/01/02 12:31:41;;;;;;;;;;;17.50;70.30;;;;;;10196184;28;93029;-46
2024/01/02 12:36:43;;;;;;;;;;;17.50;70.20;;;;;;10202695;28;93458;-44
2024/01/02 12:41:44;;;;;;;;;;;17.50;70.10;;;;;;10198135;28;93408;-45
2024/01/02 12:46:51;;;;;;;;;;;17.50;70.00;;;;;;10201965;28;93384;-48
2024/01/02 12:52:13;;;;;;;;;;;17.50;70.00;;;;;;10204168;28;93196;-46
2024/01/02 12:57:16;;;;;;;;;;;17.50;70.10;;;;;;10192059;28;94078;-48
2024/01/02 13:02:18;;;;;;;;;;;17.50;69.90;;;;;;10189039;28;95346;-45
2024/01/02 13:07:20;;;;;;;;;;;17.50;69.80;;;;;;10190539;28;93262;-44
2024/01/02 13:12:23;;;;;;;;;;;17.50;69.80;;;;;;10198851;28;95817;-44
2024/01/02 13:17:27;;;;;;;;;;;17.50;69.80;;;;;;10189859;28;94421;-44
2024/01/02 13:22:29;;;;;;;;;;;17.50;69.80;;;;;;10207650;28;94359;-45
2024/01/02 13:27:31;;;;;;;;;;;17.60;69.70;;;;;;10196056;28;94763;-48
2024/01/02 13:32:35;;;;;;;;;;;17.60;69.50;;;;;;10197663;28;94389;-44
2024/01/02 13:37:38;;;;;;;;;;;17.50;69.30;;;;;;10200159;28;93945;-46
2024/01/02 13:42:39;;;;;;;;;;;17.60;69.40;;;;;;10181793;28;93465;-43
2024/01/02 13:47:42;;;;;;;;;;;17.60;69.40;;;;;;10207631;28;92669;-45
2024/01/02 13:52:45;;;;;;;;;;;17.60;69.20;;;;;;10178776;28;93583;-46
2024/01/02 13:57:46;;;;;;;;;;;17.60;69.20;;;;;;10205592;28;93436;-47
2024/01/02 14:02:53;;;;;;;;;;;17.50;69.20;;;;;;10192561;28;95860;-45
2024/01/02 14:07:56;;;;;;;;;;;17.50;69.20;;;;;;10187167;28;93936;-43
2024/01/02 14:12:58;;;;;;;;;;;17.60;69.30;;;;;;10196885;28;94499;-47
2024/01/02 14:18:04;;;;;;;;;;;17.60;69.10;;;;;;10191959;28;94519;-48
2024/01/02 14:23:09;;;;;;;;;;;17.60;68.90;;;;;;10195557;28;94420;-45
2024/01/02 14:28:12;;;;;;;;;;;17.60;69.00;;;;;;10204833;28;93503;-45
2024/01/02 14:33:23;;;;;;;;;;;17.60;69.10;;;;;;10190693;28;93472;-45
2024/01/02 14:38:28;;;;;;;;;;;17.60;68.90;;;;;;10209951;28;92178;-45
2024/01/02 14:43:52;;;;;;;;;;;17.60;68.90;;;;;;10187676;28;94684;-47
2024/01/02 14:49:00;;;;;;;;;;;17.60;68.80;;;;;;10189883;28;93480;-48
2024/01/02 14:54:05;;;;;;;;;;;17.60;68.90;;;;;;10196314;28;97563;-50
2024/01/02 14:59:11;;;;;;;;;;;17.60;68.80;;;;;;10198346;28;93715;-45
2024/01/02 15:04:22;;;;;;;;;;;17.60;68.80;;;;;;10196682;28;94453;-44
2024/01/02 15:09:31;;;;;;;;;;;17.60;68.70;;;;;;10200073;28;94480;-45
2024/01/02 15:14:47;;;;;;;;;;;17.50;68.90;;;;;;10183967;28;93463;-44
2024/01/02 15:20:00;;;;;;;;;;;17.60;69.00;;;;;;10187284;28;93251;-43
2024/01/02 15:25:11;;;;;;;;;;;17.60;69.20;;;;;;10188781;28;94001;-43
2024/01/02 15:30:14;;;;;;;;;;;17.80;69.10;;;;;;10185794;28;92739;-45
2024/01/02 15:35:22;;;;;;;;;;;18.00;68.90;;;;;;10165475;28;93659;-43
2024/01/02 15:40:32;;;;;;;;;;;18.20;68.50;;;;;;10163107;28;93944;-43
2024/01/02 15:45:37;;;;;;;;;;;18.30;68.20;;;;;;10185580;28;96312;-46
2024/01/02 15:50:40;;;;;;;;;;;18.30;68.20;;;;;;10177722;28;93901;-45
2024/01/02 15:55:42;;;;;;;;;;;18.30;68.20;;;;;;10194861;28;93424;-46
2024/01/02 16:00:44;;;;;;;;;;;18.20;68.20;;;;;;10188517;28;93913;-45
2024/01/02 16:05:52;;;;;;;;;;;18.30;68.80;;;;;;10191481;28;94242;-43
2024/01/02 16:11:04;;;;;;;;;;;18.30;69.20;;;;;;10173824;28;93025;-46
2024/01/02 16:16:21;;;;;;;;;;;18.20;69.30;;;;;;10184911;28;94011;-47
2024/01/02 16:21:35;;;;;;;;;;;18.20;69.20;;;;;;10189864;28;92717;-44
2024/01/02 16:26:48;;;;;;;;;;;18.20;69.30;;;;;;10195688;28;94524;-44
2024/01/02 16:31:56;;;;;;;;;;;18.20;69.30;;;;;;10191044;28;93637;-43
2024/01/02 16:37:22;;;;;;;;;;;18.20;69.70;;;;;;10193637;28;96875;-43
2024/01/02 16:42:27;;;;;;;;;;;18.20;69.30;;;;;;10208948;28;94086;-43
2024/01/02 16:47:29;;;;;;;;;;;18.30;69.70;;;;;;10177072;28;93337;-46
2024/01/02 16:52:33;;;;;;;;;;;18.80;71.90;;;;;;10198798;28;94547;-45
2024/01/02 16:57:36;;;;;;;;;;;19.30;69.40;;;;;;10197232;28;92580;-43
2024/01/02 17:02:37;;;;;;;;;;;19.20;70.10;;;;;;10187630;28;94138;-43
2024/01/02 17:07:40;;;;;;;;;;;19.30;73.80;;;;;;10196143;28;93465;-44
2024/01/02 17:12:44;;;;;;;;;;;19.50;70.40;;;;;;10191681;28;93093;-44
2024/01/02 17:17:48;;;;;;;;;;;19.30;70.20;;;;;;10195274;28;93433;-45
2024/01/02 17:22:52;;;;;;;;;;;19.10;71.10;;;;;;10191576;28;93204;-45
2024/01/02 17:27:54;;;;;;;;;;;18.90;71.20;;;;;;10202196;28;97138;-43
2024/01/02 17:32:58;;;;;;;;;;;18.80;71.40;;;;;;10203797;28;93491;-43
2024/01/02 17:38:00;;;;;;;;;;;18.70;71.80;;;;;;10196948;28;93715;-45
2024/01/02 17:43:02;;;;;;;;;;;18.50;72.00;;;;;;10193113;28;93457;-47
2024/01/02 17:48:04;;;;;;;;;;;18.40;72.30;;;;;;10168472;28;93469;-43
2024/01/02 17:53:08;;;;;;;;;;;18.30;72.50;;;;;;10198223;28;93295;-44
2024/01/02 17:58:13;;;;;;;;;;;18.20;72.60;;;;;;10213642;28;93274;-46
2024/01/02 18:03:26;;;;;;;;;;;18.20;72.70;;;;;;10199275;28;93104;-42
2024/01/02 18:08:47;;;;;;;;;;;18.10;72.90;;;;;;10201409;28;93503;-45
2024/01/02 18:14:07;;;;;;;;;;;18.10;73.00;;;;;;10206695;28;94707;-45
2024/01/02 18:19:15;;;;;;;;;;;18.00;73.10;;;;;;10187563;28;96389;-44
2024/01/02 18:24:28;;;;;;;;;;;18.00;73.20;;;;;;10188502;28;113932;-44
2024/01/02 18:29:38;;;;;;;;;;;17.90;73.20;;;;;;10176017;28;93657;-44
2024/01/02 18:34:49;;;;;;;;;;;17.90;73.40;;;;;;10172313;28;93967;-44
2024/01/02 18:39:54;;;;;;;;;;;17.90;73.40;;;;;;10195265;28;93496;-45
2024/01/02 18:45:02;;;;;;;;;;;17.80;73.50;;;;;;10173803;28;93451;-44
2024/01/02 18:50:07;;;;;;;;;;;17.80;73.60;;;;;;10172498;28;93537;-45
2024/01/02 18:55:12;;;;;;;;;;;17.70;73.70;;;;;;10168662;28;93696;-42
2024/01/02 19:00:15;;;;;;;;;;;17.70;73.80;;;;;;10197042;28;93433;-44
2024/01/02 19:05:17;;;;;;;;;;;17.70;73.80;;;;;;10211856;28;95017;-44
2024/01/02 19:10:19;;;;;;;;;;;17.70;73.80;;;;;;10188111;28;97106;-43
2024/01/02 19:15:21;;;;;;;;;;;17.60;73.90;;;;;;10192922;28;93812;-55
2024/01/02 19:20:23;;;;;;;;;;;17.60;73.60;;;;;;10176938;28;94448;-46
2024/01/02 19:25:24;;;;;;;;;;;17.60;74.10;;;;;;10190654;28;93624;-45
2024/01/02 19:30:26;;;;;;;;;;;17.50;73.70;;;;;;10195506;28;92851;-47
2024/01/02 19:35:28;;;;;;;;;;;17.50;73.70;;;;;;10182565;28;94560;-50
2024/01/02 19:40:30;;;;;;;;;;;17.60;75.70;;;;;;10185806;28;93623;-43
2024/01/02 19:45:32;;;;;;;;;;;17.60;74.50;;;;;;10194593;28;93049;-43
2024/01/02 19:50:35;;;;;;;;;;;17.60;74.40;;;;;;10198411;28;93790;-44
2024/01/02 19:55:37;;;;;;;;;;;17.60;74.40;;;;;;10182364;28;94845;-47
2024/01/02 20:00:40;;;;;;;;;;;17.60;74.30;;;;;;10199548;28;97500;-48
2024/01/02 20:05:42;;;;;;;;;;;17.50;74.20;;;;;;10199301;28;93374;-44
2024/01/02 20:10:46;;;;;;;;;;;17.60;74.20;;;;;;10192039;28;94256;-44
2024/01/02 20:15:48;;;;;;;;;;;17.60;74.10;;;;;;10191441;28;94451;-49
2024/01/02 20:21:03;;;;;;;;;;;17.60;74.20;;;;;;10195104;28;93862;-45
2024/01/02 20:26:05;;;;;;;;;;;17.60;74.10;;;;;;10201587;28;93513;-44
2024/01/02 20:31:08;;;;;;;;;;;17.50;73.90;;;;;;10197025;28;93535;-46
2024/01/02 20:36:14;;;;;;;;;;;17.50;73.90;;;;;;10202350;28;92722;-45
2024/01/02 20:41:21;;;;;;;;;;;17.50;73.70;;;;;;10212307;28;93478;-46
2024/01/02 20:46:34;;;;;;;;;;;17.60;73.70;;;;;;10202939;28;94465;-44
2024/01/02 20:51:38;;;;;;;;;;;17.50;73.60;;;;;;10201082;28;97344;-45
2024/01/02 20:56:53;;;;;;;;;;;17.50;73.60;;;;;;10209387;28;93480;-43
2024/01/02 21:02:07;;;;;;;;;;;17.50;73.60;;;;;;10205995;28;93947;-44
2024/01/02 21:07:14;;;;;;;;;;;17.50;73.50;;;;;;10189733;28;93843;-45
2024/01/02 21:12:33;;;;;;;;;;;17.40;73.50;;;;;;10185788;28;93505;-44
2024/01/02 21:17:38;;;;;;;;;;;17.40;73.40;;;;;;10189966;28;94488;-46
2024/01/02 21:22:53;;;;;;;;;;;17.40;73.60;;;;;;10198348;28;93230;-44
2024/01/02 21:27:56;;;;;;;;;;;17.40;73.40;;;;;;10201657;28;92362;-43
2024/01/02 21:32:58;;;;;;;;;;;17.40;73.40;;;;;;10178036;28;94714;-43
2024/01/02 21:38:00;;;;;;;;;;;17.40;73.40;;;;;;10199143;28;93456;-47
2024/01/02 21:43:04;;;;;;;;;;;17.30;73.60;;;;;;10200576;28;96598;-43
2024/01/02 21:48:05;;;;;;;;;;;17.30;73.30;;;;;;10187558;28;93734;-44
2024/01/02 21:53:08;;;;;;;;;;;17.30;73.20;;;;;;10181515;28;94322;-44
2024/01/02 21:58:28;;;;;;;;;;;17.20;73.10;;;;;;10191996;28;93970;-43
2024/01/02 22:03:50;;;;;;;;;;;17.20;73.10;;;;;;10195715;28;94341;-42
2024/01/02 22:09:00;;;;;;;;;;;17.20;73.10;;;;;;10174275;28;93459;-44
2024/01/02 22:14:05;;;;;;;;;;;17.20;73.10;;;;;;10199286;28;94461;-46
2024/01/02 22:19:07;;;;;;;;;;;17.20;73.00;;;;;;10181039;28;93209;-44
2024/01/02 22:24:27;;;;;;;;;;;17.20;73.00;;;;;;10202821;28;94830;-44
2024/01/02 22:29:29;;;;;;;;;;;17.10;72.80;;;;;;10192436;28;94268;-44
2024/01/02 22:34:36;;;;;;;;;;;17.10;72.80;;;;;;10194875;28;95704;-43
2024/01/02 22:39:52;;;;;;;;;;;17.10;72.80;;;;;;10200247;28;93417;-45
2024/01/02 22:44:55;;;;;;;;;;;17.10;72.70;;;;;;10196721;28;94484;-44
2024/01/02 22:49:56;;;;;;;;;;;17.10;72.60;;;;;;10191355;28;93620;-43
2024/01/02 22:54:58;;;;;;;;;;;17.10;72.60;;;;;;10203182;28;93570;-44
2024/01/02 23:00:00;;;;;;;;;;;17.00;72.50;;;;;;10189885;28;94140;-45
2024/01/02 23:05:03;;;;;;;;;;;17.00;72.20;;;;;;10195025;28;94465;-42
2024/01/02 23:10:05;;;;;;;;;;;17.00;72.30;;;;;;10187832;28;92703;-45
2024/01/02 23:15:16;;;;;;;;;;;17.00;72.10;;;;;;10196377;28;94009;-42
2024/01/02 23:20:22;;;;;;;;;;;17.00;71.60;;;;;;10198444;28;93403;-42
2024/01/02 23:25:25;;;;;;;;;;;17.00;71.00;;;;;;10185410;28;96345;-43
2024/01/02 23:30:28;;;;;;;;;;;17.00;70.50;;;;;;10191734;28;93370;-44
2024/01/02 23:35:33;;;;;;;;;;;17.00;70.10;;;;;;10184387;28;93461;-45
2024/01/02 23:40:39;;;;;;;;;;;17.00;69.70;;;;;;10187464;28;93458;-47
2024/01/02 23:45:41;;;;;;;;;;;17.00;69.40;;;;;;10180113;28;94458;-44
2024/01/02 23:51:03;;;;;;;;;;;17.00;69.70;;;;;;10192783;28;94846;-43
2024/01/02 23:56:16;;;;;;;;;;;17.00;68.60;;;;;;10181667;28;94529;-43
